Aviation Digital Data Service (ADDS)

Output produced by METARs form (1132 UTC 19 January 2019)
found at http://www.aviationweather.gov/metar/data/
 
OOSA 191050Z 18008KT 150V210 CAVOK 27/17 Q1014 NOSIG
TAF OOSA 190500Z 1906/2012 03003KT 9999 FEW025 
     BECMG 1907/1909 16008KT 
     BECMG 1914/1916 VRB03KT 
     BECMG 1923/2001 36017KT 7000 NSC
       
OOMS 191050Z 33010KT 8000 FEW030 24/17 Q1014 NOSIG
TAF OOMS 191100Z 1912/2018 35010KT 9000 NSC 
     PROB30 
     TEMPO 1912/1914 FEW025 BKN045 
     BECMG 1917/1919 25007KT 
     PROB30 
     TEMPO 1922/2003 FEW025 BKN045 
     BECMG 2007/2009 33016KT 
     BECMG 2016/2018 25010KT